Time;durP1;ratioP1;P1;durP2;ratioP2;P2;SDS_P1;SDS_P2;PMS_P1;PMS_P2;Temp;Humidity;BMP_temperature;BMP_pressure;BME280_temperature;BME280_humidity;BME280_pressure;Samples;Min_cycle;Max_cycle;Signal;HPM_P1;HPM_P2
2021/01/02 00:00:52;;;;;;;522.73;47.37;;;;;;;;;;5063413;28;20259;-77
2021/01/02 00:03:37;;;;;;;346.20;36.80;;;;;;;;;;5071351;28;20267;-77
2021/01/02 00:06:17;;;;;;;287.23;29.60;;;;;;;;;;5070185;28;20269;-77
2021/01/02 00:08:47;;;;;;;563.93;55.80;;;;;;;;;;5071966;28;20278;-77
2021/01/02 00:11:22;;;;;;;500.13;46.80;;;;;;;;;;5072602;28;20337;-77
2021/01/02 00:14:03;;;;;;;525.83;49.10;;;;;;;;;;5088616;28;20785;-78
2021/01/02 00:16:29;;;;;;;353.67;30.13;;;;;;;;;;5082831;28;20266;-77
2021/01/02 00:19:03;;;;;;;330.83;29.47;;;;;;;;;;5080760;28;20262;-77
2021/01/02 00:21:29;;;;;;;417.13;35.58;;;;;;;;;;5064491;28;20262;-78
2021/01/02 00:24:04;;;;;;;269.03;26.27;;;;;;;;;;5066854;28;20494;-77
2021/01/02 00:26:31;;;;;;;323.27;29.73;;;;;;;;;;5083528;28;20267;-77
2021/01/02 00:28:57;;;;;;;299.53;30.83;;;;;;;;;;5071052;28;20263;-77
2021/01/02 00:31:32;;;;;;;557.17;50.73;;;;;;;;;;5071245;28;20760;-77
2021/01/02 00:34:22;;;;;;;528.27;53.37;;;;;;;;;;5070459;28;20412;-77
2021/01/02 00:37:07;;;;;;;327.80;32.60;;;;;;;;;;5069602;28;20295;-77
2021/01/02 00:39:47;;;;;;;436.43;45.00;;;;;;;;;;5071061;28;20259;-77
2021/01/02 00:42:14;;;;;;;254.77;27.90;;;;;;;;;;5074004;28;20775;-77
2021/01/02 00:44:42;;;;;;;306.40;25.73;;;;;;;;;;5071869;28;20270;-77
2021/01/02 00:47:11;;;;;;;392.07;40.47;;;;;;;;;;5071737;28;20259;-77
2021/01/02 00:49:38;;;;;;;288.67;29.80;;;;;;;;;;5073659;28;20674;-78
2021/01/02 00:52:27;;;;;;;492.63;41.50;;;;;;;;;;5072547;28;20794;-77
2021/01/02 00:55:07;;;;;;;255.07;28.40;;;;;;;;;;5054614;28;20274;-78
2021/01/02 00:57:51;;;;;;;488.30;38.93;;;;;;;;;;5064309;28;20454;-77
2021/01/02 01:00:18;;;;;;;451.03;43.13;;;;;;;;;;5054107;28;20275;-77
2021/01/02 01:02:44;;;;;;;221.07;26.63;;;;;;;;;;5069975;28;20780;-77
2021/01/02 01:05:14;;;;;;;245.93;29.57;;;;;;;;;;5073294;28;20764;-77
2021/01/02 01:07:40;;;;;;;293.37;31.17;;;;;;;;;;5070325;28;20271;-77
2021/01/02 01:10:10;;;;;;;480.43;45.47;;;;;;;;;;5071583;28;20282;-77
2021/01/02 01:12:39;;;;;;;770.93;65.50;;;;;;;;;;5071630;28;20756;-77
2021/01/02 01:15:06;;;;;;;606.17;51.87;;;;;;;;;;5072692;28;20343;-78
2021/01/02 01:17:41;;;;;;;546.13;47.30;;;;;;;;;;5072665;28;20309;-77
2021/01/02 01:20:12;;;;;;;666.43;56.30;;;;;;;;;;5073846;28;20751;-77
2021/01/02 01:22:42;;;;;;;715.93;64.70;;;;;;;;;;5072530;28;20793;-78
2021/01/02 01:25:13;;;;;;;473.70;37.43;;;;;;;;;;5089302;28;20420;-77
2021/01/02 01:27:48;;;;;;;440.53;38.60;;;;;;;;;;5089609;28;20420;-77
2021/01/02 01:30:20;;;;;;;672.90;60.97;;;;;;;;;;5071017;28;20624;-76
2021/01/02 01:32:55;;;;;;;512.63;49.30;;;;;;;;;;5068327;28;20355;-76
2021/01/02 01:35:26;;;;;;;487.03;38.13;;;;;;;;;;5068411;28;20303;-76
2021/01/02 01:37:52;;;;;;;296.57;27.37;;;;;;;;;;5067876;28;20314;-76
2021/01/02 01:40:23;;;;;;;405.03;39.23;;;;;;;;;;5067783;28;20268;-76
2021/01/02 01:43:00;;;;;;;300.10;27.80;;;;;;;;;;5067891;28;20617;-76
2021/01/02 01:45:32;;;;;;;370.33;30.37;;;;;;;;;;5085274;28;20262;-76
2021/01/02 01:48:04;;;;;;;399.90;30.57;;;;;;;;;;5069404;28;20269;-76
2021/01/02 01:50:42;;;;;;;190.57;22.60;;;;;;;;;;5083511;28;20251;-76
2021/01/02 01:53:32;;;;;;;307.93;26.37;;;;;;;;;;5062721;28;20278;-76
2021/01/02 01:56:04;;;;;;;375.60;35.00;;;;;;;;;;5039496;28;20313;-76
2021/01/02 01:58:42;;;;;;;351.00;33.40;;;;;;;;;;5066597;28;20386;-76
2021/01/02 02:01:09;;;;;;;390.40;37.50;;;;;;;;;;5067441;28;20263;-76
2021/01/02 02:03:36;;;;;;;380.90;34.07;;;;;;;;;;5066228;28;20267;-76
2021/01/02 02:06:24;;;;;;;291.73;25.83;;;;;;;;;;5065023;28;20279;-76
2021/01/02 02:08:57;;;;;;;358.03;33.00;;;;;;;;;;5066315;28;20310;-76
2021/01/02 02:11:42;;;;;;;308.23;26.45;;;;;;;;;;5068165;28;20267;-76
2021/01/02 02:14:11;;;;;;;313.97;30.17;;;;;;;;;;5068574;28;20417;-77
2021/01/02 02:16:42;;;;;;;397.63;36.97;;;;;;;;;;5067775;28;20251;-76
2021/01/02 02:19:18;;;;;;;204.67;22.33;;;;;;;;;;5076754;28;20633;-76
2021/01/02 02:21:46;;;;;;;346.83;30.87;;;;;;;;;;5066426;28;20303;-76
2021/01/02 02:24:17;;;;;;;305.13;30.23;;;;;;;;;;5073667;28;20821;-77
2021/01/02 02:26:44;;;;;;;304.80;28.30;;;;;;;;;;5068932;28;20275;-76
2021/01/02 02:29:13;;;;;;;400.73;33.57;;;;;;;;;;5069920;28;20271;-77
2021/01/02 02:31:47;;;;;;;186.30;19.67;;;;;;;;;;5069124;28;20274;-76
2021/01/02 02:34:13;;;;;;;314.25;29.17;;;;;;;;;;5067711;28;20263;-76
2021/01/02 02:36:40;;;;;;;313.03;26.57;;;;;;;;;;5064586;28;20068;-76
2021/01/02 02:39:10;;;;;;;157.13;20.43;;;;;;;;;;5067837;28;20265;-76
2021/01/02 02:41:42;;;;;;;303.70;30.80;;;;;;;;;;5068180;28;20577;-76
2021/01/02 02:44:10;;;;;;;126.97;18.87;;;;;;;;;;5050176;28;20258;-76
2021/01/02 02:46:39;;;;;;;248.07;25.67;;;;;;;;;;5068083;28;20261;-77
2021/01/02 02:49:10;;;;;;;132.80;21.30;;;;;;;;;;5083509;28;20263;-77
2021/01/02 02:51:42;;;;;;;138.03;17.63;;;;;;;;;;5065944;28;20262;-76
2021/01/02 02:54:08;;;;;;;271.03;27.77;;;;;;;;;;5048352;28;20268;-76
2021/01/02 02:56:34;;;;;;;449.50;40.00;;;;;;;;;;5048451;28;21126;-76
2021/01/02 02:59:00;;;;;;;365.10;32.10;;;;;;;;;;5066602;28;20263;-76
2021/01/02 03:01:28;;;;;;;335.20;32.03;;;;;;;;;;5066485;28;20863;-77
2021/01/02 03:03:55;;;;;;;453.67;39.23;;;;;;;;;;5068543;28;20263;-76
2021/01/02 03:06:22;;;;;;;352.63;33.20;;;;;;;;;;5068445;28;20372;-78
2021/01/02 03:08:53;;;;;;;357.10;33.03;;;;;;;;;;5086167;28;20348;-77
2021/01/02 03:11:26;;;;;;;320.77;33.67;;;;;;;;;;5066201;28;20259;-77
2021/01/02 03:13:52;;;;;;;319.03;33.37;;;;;;;;;;5057837;28;20391;-76
2021/01/02 03:16:19;;;;;;;76.63;17.23;;;;;;;;;;5062784;28;20270;-76
2021/01/02 03:18:45;;;;;;;92.90;18.00;;;;;;;;;;5049874;28;20364;-76
2021/01/02 03:21:12;;;;;;;92.03;17.80;;;;;;;;;;5048560;28;20800;-77
2021/01/02 03:23:48;;;;;;;36.40;14.70;;;;;;;;;;5048946;28;20262;-76
2021/01/02 03:26:15;;;;;;;131.40;21.60;;;;;;;;;;5054124;28;20773;-76
2021/01/02 03:28:48;;;;;;;146.77;26.57;;;;;;;;;;5068299;28;20271;-77
2021/01/02 03:31:14;;;;;;;37.63;11.27;;;;;;;;;;5070013;28;20274;-76
2021/01/02 03:33:40;;;;;;;65.03;17.63;;;;;;;;;;5069254;28;20025;-77
2021/01/02 03:36:06;;;;;;;45.73;16.60;;;;;;;;;;5085181;28;20269;-76
2021/01/02 03:38:33;;;;;;;66.53;18.20;;;;;;;;;;5085065;28;20362;-76
2021/01/02 03:41:00;;;;;;;123.63;20.13;;;;;;;;;;5064947;28;20266;-76
2021/01/02 03:43:26;;;;;;;76.80;17.50;;;;;;;;;;5067888;28;21206;-76
2021/01/02 03:45:53;;;;;;;44.53;15.53;;;;;;;;;;5067769;28;20267;-77
2021/01/02 03:48:19;;;;;;;24.57;13.83;;;;;;;;;;5059525;28;21067;-77
2021/01/02 03:50:45;;;;;;;22.63;13.00;;;;;;;;;;5048675;28;20879;-76
2021/01/02 03:53:11;;;;;;;23.40;13.77;;;;;;;;;;5062620;28;20267;-76
2021/01/02 03:55:37;;;;;;;25.10;14.13;;;;;;;;;;5061445;28;21043;-76
2021/01/02 03:58:04;;;;;;;23.20;13.57;;;;;;;;;;5066803;28;20283;-76
2021/01/02 04:00:30;;;;;;;20.60;12.77;;;;;;;;;;5067421;28;20275;-77
2021/01/02 04:02:56;;;;;;;22.00;13.67;;;;;;;;;;5067360;28;20263;-76
2021/01/02 04:05:22;;;;;;;24.63;15.83;;;;;;;;;;5064092;28;20281;-76
2021/01/02 04:07:48;;;;;;;25.40;15.53;;;;;;;;;;5065329;28;20271;-76
2021/01/02 04:10:14;;;;;;;253.67;29.43;;;;;;;;;;5082568;28;20259;-77
2021/01/02 04:12:40;;;;;;;118.57;21.20;;;;;;;;;;5064058;28;20857;-76
2021/01/02 04:15:07;;;;;;;41.50;15.47;;;;;;;;;;5064914;28;20273;-76
2021/01/02 04:17:33;;;;;;;27.67;16.87;;;;;;;;;;5064329;28;20395;-77
2021/01/02 04:19:59;;;;;;;31.10;16.30;;;;;;;;;;5064855;28;21022;-76
2021/01/02 04:22:25;;;;;;;26.27;15.23;;;;;;;;;;5081774;28;20744;-77
2021/01/02 04:24:51;;;;;;;25.80;14.70;;;;;;;;;;5064248;28;20271;-77
2021/01/02 04:27:17;;;;;;;23.50;13.43;;;;;;;;;;5067182;28;20342;-77
2021/01/02 04:29:43;;;;;;;25.90;15.83;;;;;;;;;;5066997;28;20616;-77
2021/01/02 04:32:09;;;;;;;23.70;13.90;;;;;;;;;;5067729;28;20271;-76
2021/01/02 04:34:35;;;;;;;26.20;15.13;;;;;;;;;;5084950;28;20319;-76
2021/01/02 04:37:01;;;;;;;22.00;13.40;;;;;;;;;;5066873;28;20783;-76
2021/01/02 04:39:27;;;;;;;25.03;14.40;;;;;;;;;;5082013;28;20266;-76
2021/01/02 04:41:56;;;;;;;22.70;13.70;;;;;;;;;;5082037;28;20728;-77
2021/01/02 04:44:22;;;;;;;25.27;14.37;;;;;;;;;;5055080;28;20283;-77
2021/01/02 04:46:52;;;;;;;24.77;14.23;;;;;;;;;;5068083;28;20795;-76
2021/01/02 04:49:18;;;;;;;25.97;16.47;;;;;;;;;;5069905;28;20259;-77
2021/01/02 04:51:44;;;;;;;24.40;15.10;;;;;;;;;;5068377;28;20753;-77
2021/01/02 04:54:10;;;;;;;22.97;13.57;;;;;;;;;;5064505;28;20299;-77
2021/01/02 04:56:38;;;;;;;22.50;13.97;;;;;;;;;;5065778;28;20303;-76
2021/01/02 04:59:11;;;;;;;24.43;14.33;;;;;;;;;;5069897;28;20267;-76
2021/01/02 05:01:38;;;;;;;16.00;10.15;;;;;;;;;;5069828;28;20379;-77
2021/01/02 05:04:04;;;;;;;22.80;13.90;;;;;;;;;;5068148;28;20501;-76
2021/01/02 05:06:30;;;;;;;20.97;13.40;;;;;;;;;;5064364;28;20362;-77
2021/01/02 05:08:56;;;;;;;23.83;14.10;;;;;;;;;;5066402;28;20279;-76
2021/01/02 05:11:22;;;;;;;20.90;12.57;;;;;;;;;;5069315;28;20302;-77
2021/01/02 05:13:48;;;;;;;21.83;13.37;;;;;;;;;;5068108;28;20285;-76
2021/01/02 05:16:18;;;;;;;21.43;12.43;;;;;;;;;;5051687;28;20264;-77
2021/01/02 05:18:54;;;;;;;22.83;14.20;;;;;;;;;;5064613;28;20294;-76
2021/01/02 05:21:20;;;;;;;25.47;14.40;;;;;;;;;;5064560;28;20372;-77
2021/01/02 05:24:05;;;;;;;21.80;13.97;;;;;;;;;;5048554;28;20325;-78
2021/01/02 05:26:32;;;;;;;24.50;13.57;;;;;;;;;;5049152;28;20282;-76
2021/01/02 05:29:20;;;;;;;25.67;14.17;;;;;;;;;;5060735;28;21042;-76
2021/01/02 05:31:54;;;;;;;23.53;13.80;;;;;;;;;;5052180;28;20344;-76
2021/01/02 05:34:24;;;;;;;23.55;14.07;;;;;;;;;;5050023;28;20268;-77
2021/01/02 05:36:59;;;;;;;24.67;15.27;;;;;;;;;;5066994;28;20166;-77
2021/01/02 05:39:35;;;;;;;29.60;16.30;;;;;;;;;;5068277;28;21197;-76
2021/01/02 05:42:01;;;;;;;24.67;13.93;;;;;;;;;;5067471;28;20320;-77
2021/01/02 05:44:31;;;;;;;23.20;14.37;;;;;;;;;;5054875;28;20401;-77
2021/01/02 05:46:57;;;;;;;24.03;13.97;;;;;;;;;;5048797;28;20346;-78
2021/01/02 05:49:32;;;;;;;24.67;13.87;;;;;;;;;;5049416;28;20255;-77
2021/01/02 05:51:59;;;;;;;23.83;14.40;;;;;;;;;;5055840;28;20355;-77
2021/01/02 05:54:26;;;;;;;23.47;14.40;;;;;;;;;;5067498;28;20789;-77
2021/01/02 05:56:55;;;;;;;24.30;15.00;;;;;;;;;;5055590;28;20405;-77
2021/01/02 05:59:28;;;;;;;26.03;14.50;;;;;;;;;;5067311;28;20978;-76
2021/01/02 06:01:54;;;;;;;32.20;17.35;;;;;;;;;;5084505;28;21113;-77
2021/01/02 06:04:20;;;;;;;28.50;16.30;;;;;;;;;;5066698;28;20074;-77
2021/01/02 06:06:46;;;;;;;29.20;16.07;;;;;;;;;;5051905;28;20593;-77
2021/01/02 06:09:12;;;;;;;36.17;17.20;;;;;;;;;;5048598;28;20260;-77
2021/01/02 06:11:39;;;;;;;33.57;17.43;;;;;;;;;;5059166;28;20732;-77
2021/01/02 06:14:07;;;;;;;38.57;19.37;;;;;;;;;;5067488;28;20620;-77
2021/01/02 06:16:34;;;;;;;47.80;21.27;;;;;;;;;;5065860;28;20279;-77
2021/01/02 06:19:00;;;;;;;52.33;20.47;;;;;;;;;;5084679;28;20278;-77
2021/01/02 06:21:29;;;;;;;37.63;19.53;;;;;;;;;;5084325;28;20624;-77
2021/01/02 06:23:56;;;;;;;36.40;18.03;;;;;;;;;;5068916;28;20302;-77
2021/01/02 06:26:22;;;;;;;37.67;20.30;;;;;;;;;;5066596;28;20655;-77
2021/01/02 06:28:48;;;;;;;33.67;19.07;;;;;;;;;;5068336;28;20340;-77
2021/01/02 06:31:15;;;;;;;35.80;17.60;;;;;;;;;;5067344;28;21009;-77
2021/01/02 06:33:48;;;;;;;36.20;18.27;;;;;;;;;;5068770;28;20360;-77
2021/01/02 06:36:41;;;;;;;32.90;18.05;;;;;;;;;;5083676;28;20332;-78
2021/01/02 06:39:17;;;;;;;33.93;17.97;;;;;;;;;;5066826;28;20044;-77
2021/01/02 06:41:43;;;;;;;29.80;16.17;;;;;;;;;;5071254;28;20272;-77
2021/01/02 06:44:09;;;;;;;33.93;17.30;;;;;;;;;;5066334;28;20252;-77
2021/01/02 06:46:36;;;;;;;29.97;15.70;;;;;;;;;;5047674;28;20252;-77
2021/01/02 06:49:22;;;;;;;32.50;17.80;;;;;;;;;;5054741;28;20317;-77
2021/01/02 06:51:50;;;;;;;27.90;16.33;;;;;;;;;;5068738;28;20259;-77
2021/01/02 06:54:22;;;;;;;29.63;16.43;;;;;;;;;;5077131;28;20279;-78
2021/01/02 06:57:00;;;;;;;29.23;16.17;;;;;;;;;;5051110;28;20298;-77
2021/01/02 06:59:26;;;;;;;24.93;13.70;;;;;;;;;;5068998;28;20259;-78
2021/01/02 07:01:53;;;;;;;26.87;14.40;;;;;;;;;;5067976;28;20749;-77
2021/01/02 07:04:34;;;;;;;24.23;14.63;;;;;;;;;;5067641;28;20273;-77
2021/01/02 07:07:00;;;;;;;27.37;15.27;;;;;;;;;;5065613;28;20277;-78
2021/01/02 07:09:27;;;;;;;30.90;15.77;;;;;;;;;;5066669;28;20279;-78
2021/01/02 07:12:05;;;;;;;28.97;16.60;;;;;;;;;;5067079;28;21056;-77
2021/01/02 07:14:32;;;;;;;27.50;15.60;;;;;;;;;;5067706;28;20828;-78
2021/01/02 07:16:59;;;;;;;30.53;16.03;;;;;;;;;;5063399;28;20350;-77
2021/01/02 07:19:31;;;;;;;27.43;14.73;;;;;;;;;;5067630;28;20345;-78
2021/01/02 07:21:58;;;;;;;29.03;16.43;;;;;;;;;;5068733;28;20254;-77
2021/01/02 07:24:25;;;;;;;26.60;15.73;;;;;;;;;;5056394;28;20718;-78
2021/01/02 07:26:56;;;;;;;23.23;14.33;;;;;;;;;;5062808;28;20317;-77
2021/01/02 07:29:23;;;;;;;24.73;14.80;;;;;;;;;;5063585;28;20275;-77
2021/01/02 07:31:49;;;;;;;32.67;17.40;;;;;;;;;;5052675;28;20899;-78
2021/01/02 07:34:19;;;;;;;28.80;15.73;;;;;;;;;;5067283;28;20324;-78
2021/01/02 07:36:45;;;;;;;27.93;15.50;;;;;;;;;;5066204;28;20362;-77
2021/01/02 07:39:12;;;;;;;31.40;16.60;;;;;;;;;;5067961;28;20493;-78
2021/01/02 07:41:39;;;;;;;26.17;14.33;;;;;;;;;;5068271;28;20267;-78
2021/01/02 07:44:06;;;;;;;26.73;14.03;;;;;;;;;;5066623;28;20267;-78
2021/01/02 07:46:33;;;;;;;21.60;13.23;;;;;;;;;;5059098;28;20749;-78
2021/01/02 07:48:59;;;;;;;24.63;14.97;;;;;;;;;;5067880;28;20357;-78
2021/01/02 07:51:29;;;;;;;27.87;17.00;;;;;;;;;;5083789;28;20343;-78
2021/01/02 07:53:55;;;;;;;29.03;18.03;;;;;;;;;;5066295;28;20270;-77
2021/01/02 07:56:34;;;;;;;29.67;16.93;;;;;;;;;;5048552;28;20271;-79
2021/01/02 07:59:19;;;;;;;29.57;15.83;;;;;;;;;;5066049;28;20280;-78
2021/01/02 08:01:49;;;;;;;26.87;14.97;;;;;;;;;;5084000;28;20309;-79
2021/01/02 08:04:15;;;;;;;25.23;14.07;;;;;;;;;;5086728;28;20259;-78
2021/01/02 08:06:45;;;;;;;31.97;17.37;;;;;;;;;;5061912;28;20271;-79
2021/01/02 08:09:11;;;;;;;39.40;19.63;;;;;;;;;;5049641;28;20641;-79
2021/01/02 08:11:38;;;;;;;33.77;17.50;;;;;;;;;;5067897;28;20391;-78
2021/01/02 08:14:04;;;;;;;34.97;17.10;;;;;;;;;;5068478;28;20850;-78
2021/01/02 08:16:31;;;;;;;33.20;16.87;;;;;;;;;;5068793;28;20368;-78
2021/01/02 08:19:06;;;;;;;37.90;17.83;;;;;;;;;;5062349;28;20728;-77
2021/01/02 08:21:39;;;;;;;35.80;16.80;;;;;;;;;;5057123;28;20259;-77
2021/01/02 08:24:06;;;;;;;37.85;18.92;;;;;;;;;;5061213;28;20263;-77
2021/01/02 08:26:33;;;;;;;34.43;17.90;;;;;;;;;;5068486;28;20029;-77
2021/01/02 08:29:00;;;;;;;33.07;16.67;;;;;;;;;;5068686;28;20277;-77
2021/01/02 08:31:26;;;;;;;34.10;18.07;;;;;;;;;;5070049;28;20294;-77
2021/01/02 08:33:52;;;;;;;33.70;17.53;;;;;;;;;;5069750;28;20275;-77
2021/01/02 08:36:19;;;;;;;30.33;17.87;;;;;;;;;;5068066;28;20271;-77
2021/01/02 08:38:45;;;;;;;29.83;17.57;;;;;;;;;;5065122;28;20284;-77
2021/01/02 08:41:19;;;;;;;34.97;18.57;;;;;;;;;;5086033;28;20656;-77
2021/01/02 08:43:45;;;;;;;;;;;;;;;;;;5085949;28;20268;-77
2021/01/02 08:46:11;;;;;;;36.27;17.43;;;;;;;;;;5073473;28;20027;-77
2021/01/02 08:48:47;;;;;;;34.33;18.30;;;;;;;;;;5110163;28;20032;-77
2021/01/02 08:51:26;;;;;;;36.53;18.77;;;;;;;;;;5097393;28;20349;-77
2021/01/02 08:53:52;;;;;;;43.30;20.00;;;;;;;;;;5086857;28;20265;-77
2021/01/02 08:56:28;;;;;;;34.73;17.93;;;;;;;;;;5076869;28;20272;-79
2021/01/02 08:58:54;;;;;;;37.30;19.07;;;;;;;;;;5070511;28;20413;-77
2021/01/02 09:01:20;;;;;;;41.50;17.97;;;;;;;;;;5071058;28;20251;-77
2021/01/02 09:03:47;;;;;;;41.23;18.60;;;;;;;;;;5065189;28;20625;-77
2021/01/02 09:06:20;;;;;;;42.13;19.97;;;;;;;;;;5071798;28;20270;-77
2021/01/02 09:08:59;;;;;;;32.10;15.82;;;;;;;;;;5070980;28;20423;-77
2021/01/02 09:11:25;;;;;;;34.27;18.20;;;;;;;;;;5068831;28;20028;-77
2021/01/02 09:14:04;;;;;;;41.20;18.77;;;;;;;;;;5068953;28;21105;-77
2021/01/02 09:16:30;;;;;;;34.67;17.73;;;;;;;;;;5065250;28;20340;-77
2021/01/02 09:18:56;;;;;;;30.00;16.70;;;;;;;;;;5065607;28;20287;-77
2021/01/02 09:21:24;;;;;;;29.50;16.63;;;;;;;;;;5065431;28;20719;-77
2021/01/02 09:23:50;;;;;;;26.77;15.63;;;;;;;;;;5053745;28;20803;-77
2021/01/02 09:26:19;;;;;;;29.37;16.77;;;;;;;;;;5067785;28;20286;-77
2021/01/02 09:28:45;;;;;;;26.63;15.23;;;;;;;;;;5071925;28;20732;-78
2021/01/02 09:31:12;;;;;;;26.63;15.07;;;;;;;;;;5069980;28;20263;-76
2021/01/02 09:33:40;;;;;;;25.87;14.90;;;;;;;;;;5070912;28;20271;-78
2021/01/02 09:36:08;;;;;;;26.67;15.87;;;;;;;;;;5060961;28;20329;-78
2021/01/02 09:38:34;;;;;;;33.70;19.00;;;;;;;;;;5067928;28;20894;-77
2021/01/02 09:41:00;;;;;;;25.13;15.17;;;;;;;;;;5068577;28;21054;-78
2021/01/02 09:43:28;;;;;;;27.07;14.80;;;;;;;;;;5068286;28;20259;-78
2021/01/02 09:45:54;;;;;;;28.17;15.97;;;;;;;;;;5069949;28;20651;-77
2021/01/02 09:48:20;;;;;;;31.00;17.03;;;;;;;;;;5067888;28;20262;-77
2021/01/02 09:50:46;;;;;;;30.37;16.63;;;;;;;;;;5066083;28;20333;-77
2021/01/02 09:53:13;;;;;;;27.10;15.77;;;;;;;;;;5061428;28;20278;-77
2021/01/02 09:55:39;;;;;;;32.60;15.43;;;;;;;;;;5084059;28;20278;-77
2021/01/02 09:58:05;;;;;;;34.13;15.73;;;;;;;;;;5056968;28;20311;-78
2021/01/02 10:00:31;;;;;;;35.23;19.27;;;;;;;;;;5059979;28;20281;-77
2021/01/02 10:03:00;;;;;;;33.03;16.33;;;;;;;;;;5068437;28;20670;-77
2021/01/02 10:05:27;;;;;;;29.30;15.07;;;;;;;;;;5067146;28;20635;-77
2021/01/02 10:07:55;;;;;;;30.40;17.73;;;;;;;;;;5066323;28;20283;-76
2021/01/02 10:10:22;;;;;;;29.10;16.40;;;;;;;;;;5066942;28;20349;-77
2021/01/02 10:12:49;;;;;;;25.83;13.97;;;;;;;;;;5065897;28;20274;-78
2021/01/02 10:15:16;;;;;;;26.07;14.27;;;;;;;;;;5068038;28;20285;-77
2021/01/02 10:17:42;;;;;;;24.50;13.97;;;;;;;;;;5066705;28;20392;-77
2021/01/02 10:20:09;;;;;;;24.80;14.63;;;;;;;;;;5070490;28;20698;-79
2021/01/02 10:22:35;;;;;;;31.37;16.53;;;;;;;;;;5068773;28;20267;-77
2021/01/02 10:25:01;;;;;;;36.30;17.07;;;;;;;;;;5067290;28;20270;-77
2021/01/02 10:27:31;;;;;;;27.73;15.13;;;;;;;;;;5066760;28;20283;-77
2021/01/02 10:29:57;;;;;;;29.53;15.93;;;;;;;;;;5066125;28;20358;-77
2021/01/02 10:32:25;;;;;;;30.17;16.33;;;;;;;;;;5066628;28;20266;-77
2021/01/02 10:34:51;;;;;;;27.47;15.87;;;;;;;;;;5057987;28;20270;-77
2021/01/02 10:37:19;;;;;;;27.30;15.00;;;;;;;;;;5062228;28;20960;-77
2021/01/02 10:39:47;;;;;;;26.73;15.97;;;;;;;;;;5066087;28;20263;-76
2021/01/02 10:42:15;;;;;;;27.63;15.07;;;;;;;;;;5065507;28;20784;-77
2021/01/02 10:44:45;;;;;;;25.13;14.17;;;;;;;;;;5084142;28;20350;-77
2021/01/02 10:47:11;;;;;;;23.00;13.20;;;;;;;;;;5062785;28;20287;-77
2021/01/02 10:49:37;;;;;;;25.50;15.73;;;;;;;;;;5065323;28;20266;-77
2021/01/02 10:52:04;;;;;;;22.17;13.13;;;;;;;;;;5081110;28;20351;-77
2021/01/02 10:54:32;;;;;;;25.67;15.10;;;;;;;;;;5074991;28;20284;-77
2021/01/02 10:57:03;;;;;;;21.43;12.93;;;;;;;;;;5106433;28;20589;-77
2021/01/02 10:59:29;;;;;;;22.30;13.40;;;;;;;;;;5052026;28;20271;-78
2021/01/02 11:01:56;;;;;;;23.43;13.97;;;;;;;;;;5067225;28;20833;-78
2021/01/02 11:04:23;;;;;;;22.87;13.57;;;;;;;;;;5080236;28;20263;-77
2021/01/02 11:06:52;;;;;;;22.90;13.37;;;;;;;;;;5072984;28;20267;-77
2021/01/02 11:09:19;;;;;;;24.43;15.50;;;;;;;;;;5068151;28;20443;-78
2021/01/02 11:11:46;;;;;;;22.63;13.10;;;;;;;;;;5068892;28;20239;-77
2021/01/02 11:14:13;;;;;;;24.20;14.57;;;;;;;;;;5065148;28;20263;-78
2021/01/02 11:16:40;;;;;;;23.33;14.27;;;;;;;;;;5068271;28;20917;-78
2021/01/02 11:19:18;;;;;;;23.20;14.03;;;;;;;;;;5068971;28;20278;-77
2021/01/02 11:21:47;;;;;;;24.00;15.30;;;;;;;;;;5048982;28;20246;-78
2021/01/02 11:24:17;;;;;;;25.97;16.07;;;;;;;;;;5069642;28;20259;-78
2021/01/02 11:26:47;;;;;;;27.90;17.17;;;;;;;;;;5085053;28;20259;-77
2021/01/02 11:29:17;;;;;;;28.77;17.60;;;;;;;;;;5069456;28;20269;-79
2021/01/02 11:31:43;;;;;;;23.73;14.03;;;;;;;;;;5060790;28;20303;-78
2021/01/02 11:34:10;;;;;;;25.33;15.53;;;;;;;;;;5080876;28;20300;-77
2021/01/02 11:36:36;;;;;;;22.63;13.67;;;;;;;;;;5068594;28;20275;-79
2021/01/02 11:39:03;;;;;;;24.53;15.00;;;;;;;;;;5067776;28;20294;-78
2021/01/02 11:41:31;;;;;;;21.17;13.03;;;;;;;;;;5085634;28;20267;-78
2021/01/02 11:43:57;;;;;;;23.20;13.83;;;;;;;;;;5069972;28;20259;-78
2021/01/02 11:46:27;;;;;;;21.93;13.30;;;;;;;;;;5067698;28;20330;-78
2021/01/02 11:48:53;;;;;;;23.33;13.63;;;;;;;;;;5062453;28;20357;-78
2021/01/02 11:51:19;;;;;;;25.20;14.13;;;;;;;;;;5061130;28;20354;-78
2021/01/02 11:53:45;;;;;;;23.27;13.23;;;;;;;;;;5068609;28;20329;-78
2021/01/02 11:56:12;;;;;;;24.37;13.43;;;;;;;;;;5074422;28;20279;-78
2021/01/02 11:58:39;;;;;;;26.93;14.57;;;;;;;;;;5071370;28;20348;-78
2021/01/02 12:01:05;;;;;;;24.23;14.43;;;;;;;;;;5072775;28;20287;-77
2021/01/02 12:03:32;;;;;;;22.60;13.43;;;;;;;;;;5075764;28;20276;-78
2021/01/02 12:05:58;;;;;;;23.97;13.93;;;;;;;;;;5069434;28;20306;-78
2021/01/02 12:08:24;;;;;;;26.00;15.87;;;;;;;;;;5087654;28;20636;-78
2021/01/02 12:10:50;;;;;;;27.87;15.63;;;;;;;;;;5090163;28;20344;-78
2021/01/02 12:13:17;;;;;;;30.20;16.57;;;;;;;;;;5089102;28;20297;-78
2021/01/02 12:15:43;;;;;;;22.73;13.67;;;;;;;;;;5071269;28;20643;-78
2021/01/02 12:18:09;;;;;;;25.53;13.83;;;;;;;;;;5071893;28;20374;-78
2021/01/02 12:20:36;;;;;;;25.77;15.03;;;;;;;;;;5070617;28;20286;-78
2021/01/02 12:23:02;;;;;;;26.17;15.63;;;;;;;;;;5069970;28;20671;-78
2021/01/02 12:25:28;;;;;;;27.27;15.43;;;;;;;;;;5071884;28;20024;-78
2021/01/02 12:27:58;;;;;;;21.67;13.20;;;;;;;;;;5064689;28;20275;-78
2021/01/02 12:30:27;;;;;;;26.40;15.23;;;;;;;;;;5072202;28;20338;-78
2021/01/02 12:32:53;;;;;;;24.23;14.57;;;;;;;;;;5070304;28;20274;-78
2021/01/02 12:35:19;;;;;;;22.53;13.23;;;;;;;;;;5070987;28;20035;-78
2021/01/02 12:37:45;;;;;;;22.67;14.23;;;;;;;;;;5069799;28;20115;-78
2021/01/02 12:40:12;;;;;;;22.93;13.70;;;;;;;;;;5071382;28;20036;-78
2021/01/02 12:42:38;;;;;;;25.87;14.80;;;;;;;;;;5052539;28;20036;-77
2021/01/02 12:45:06;;;;;;;25.07;14.00;;;;;;;;;;5062586;28;20028;-78
2021/01/02 12:47:33;;;;;;;23.17;14.47;;;;;;;;;;5070544;28;20561;-77
2021/01/02 12:49:59;;;;;;;21.27;13.13;;;;;;;;;;5069770;28;20078;-77
2021/01/02 12:52:29;;;;;;;24.97;14.70;;;;;;;;;;5070024;28;20032;-78
2021/01/02 12:54:57;;;;;;;22.17;13.23;;;;;;;;;;5070691;28;20024;-76
2021/01/02 12:57:23;;;;;;;24.17;13.60;;;;;;;;;;5065247;28;20283;-78
2021/01/02 12:59:52;;;;;;;27.57;16.30;;;;;;;;;;5057217;28;20341;-78
2021/01/02 13:02:19;;;;;;;21.77;12.93;;;;;;;;;;5091453;28;20294;-77
2021/01/02 13:04:50;;;;;;;25.17;14.30;;;;;;;;;;5110459;28;20362;-76
2021/01/02 13:07:17;;;;;;;28.50;14.57;;;;;;;;;;5078735;28;20381;-77
2021/01/02 13:09:44;;;;;;;24.30;13.90;;;;;;;;;;5073112;28;20262;-77
2021/01/02 13:12:11;;;;;;;21.90;13.97;;;;;;;;;;5072457;28;20395;-77
2021/01/02 13:14:40;;;;;;;22.27;13.13;;;;;;;;;;5059512;28;20274;-77
2021/01/02 13:17:07;;;;;;;21.10;13.20;;;;;;;;;;5062132;28;20279;-77
2021/01/02 13:19:33;;;;;;;22.03;12.77;;;;;;;;;;5070744;28;20324;-78
2021/01/02 13:22:07;;;;;;;21.50;13.03;;;;;;;;;;5069804;28;20267;-77
2021/01/02 13:24:33;;;;;;;;;;;;;;;;;;5071228;28;20289;-77
2021/01/02 13:27:00;;;;;;;19.77;12.13;;;;;;;;;;5071164;28;20373;-78
2021/01/02 13:29:30;;;;;;;20.03;11.07;;;;;;;;;;5068710;28;20024;-78
2021/01/02 13:31:57;;;;;;;20.30;12.43;;;;;;;;;;5069867;28;20317;-76
2021/01/02 13:34:25;;;;;;;24.00;15.43;;;;;;;;;;5087926;28;20271;-77
2021/01/02 13:36:52;;;;;;;25.40;16.33;;;;;;;;;;5071047;28;20271;-79
2021/01/02 13:39:21;;;;;;;22.93;13.50;;;;;;;;;;5056397;28;20624;-77
2021/01/02 13:41:47;;;;;;;35.40;22.13;;;;;;;;;;5066203;28;20716;-76
2021/01/02 13:44:13;;;;;;;29.47;20.63;;;;;;;;;;5072085;28;20373;-77
2021/01/02 13:46:40;;;;;;;29.10;19.77;;;;;;;;;;5070067;28;20350;-77
2021/01/02 13:49:06;;;;;;;26.90;15.33;;;;;;;;;;5068900;28;20798;-77
2021/01/02 13:51:32;;;;;;;27.60;17.37;;;;;;;;;;5063803;28;20267;-77
2021/01/02 13:53:58;;;;;;;25.37;16.20;;;;;;;;;;5070075;28;20275;-77
2021/01/02 13:56:25;;;;;;;25.07;15.23;;;;;;;;;;5066457;28;20267;-77
2021/01/02 13:58:51;;;;;;;21.13;13.83;;;;;;;;;;5073808;28;20775;-76
2021/01/02 14:01:18;;;;;;;21.83;12.83;;;;;;;;;;5070506;28;20267;-77
2021/01/02 14:03:52;;;;;;;25.80;15.33;;;;;;;;;;5071376;28;20305;-77
2021/01/02 14:06:19;;;;;;;25.07;15.53;;;;;;;;;;5068604;28;20707;-78
2021/01/02 14:08:45;;;;;;;18.57;11.27;;;;;;;;;;5070457;28;20970;-77
2021/01/02 14:11:20;;;;;;;16.33;9.70;;;;;;;;;;5071209;28;20270;-78
2021/01/02 14:13:50;;;;;;;16.30;11.03;;;;;;;;;;5070189;28;20282;-78
2021/01/02 14:16:17;;;;;;;13.90;8.27;;;;;;;;;;5068579;28;20258;-77
2021/01/02 14:18:43;;;;;;;15.83;10.27;;;;;;;;;;5069137;28;20285;-78
2021/01/02 14:21:09;;;;;;;16.87;11.13;;;;;;;;;;5069728;28;20324;-77
2021/01/02 14:23:35;;;;;;;24.80;14.40;;;;;;;;;;5067717;28;20263;-77